sensor_id;sensor_type;location;lat;lon;timestamp;pressure;altitude;pressure_sealevel;temperature;humidity
50226;BME280;36113;50.742;6.432;2024-01-06T00:02:17;97484.91;;;4.54;93.72
50226;BME280;36113;50.742;6.432;2024-01-06T00:04:42;97482.47;;;4.53;93.60
50226;BME280;36113;50.742;6.432;2024-01-06T00:07:08;97521.03;;;4.74;93.50
50226;BME280;36113;50.742;6.432;2024-01-06T00:09:34;97509.44;;;4.73;93.03
50226;BME280;36113;50.742;6.432;2024-01-06T00:11:59;97510.53;;;4.72;93.10
50226;BME280;36113;50.742;6.432;2024-01-06T00:14:26;97523.44;;;4.75;93.20
50226;BME280;36113;50.742;6.432;2024-01-06T00:16:52;97490.53;;;4.53;93.11
50226;BME280;36113;50.742;6.432;2024-01-06T00:19:17;97531.00;;;4.79;92.92
50226;BME280;36113;50.742;6.432;2024-01-06T00:21:43;97534.50;;;4.79;92.97
50226;BME280;36113;50.742;6.432;2024-01-06T00:24:08;97501.59;;;4.62;92.86
50226;BME280;36113;50.742;6.432;2024-01-06T00:26:33;97534.50;;;4.79;92.84
50226;BME280;36113;50.742;6.432;2024-01-06T00:28:59;97510.47;;;4.62;93.36
50226;BME280;36113;50.742;6.432;2024-01-06T00:31:24;97541.78;;;4.84;93.16
50226;BME280;36113;50.742;6.432;2024-01-06T00:33:49;97504.53;;;4.55;93.73
50226;BME280;36113;50.742;6.432;2024-01-06T00:36:15;97552.00;;;4.82;94.04
50226;BME280;36113;50.742;6.432;2024-01-06T00:38:40;97537.69;;;4.71;94.54
50226;BME280;36113;50.742;6.432;2024-01-06T00:41:05;97544.16;;;4.75;94.75
50226;BME280;36113;50.742;6.432;2024-01-06T00:43:31;97536.88;;;4.70;94.95
50226;BME280;36113;50.742;6.432;2024-01-06T00:45:56;97541.47;;;4.75;95.45
50226;BME280;36113;50.742;6.432;2024-01-06T00:48:21;97548.22;;;4.72;95.84
50226;BME280;36113;50.742;6.432;2024-01-06T00:50:46;97546.06;;;4.74;96.06
50226;BME280;36113;50.742;6.432;2024-01-06T00:53:12;97532.03;;;4.67;95.79
50226;BME280;36113;50.742;6.432;2024-01-06T00:55:38;97545.81;;;4.76;96.14
50226;BME280;36113;50.742;6.432;2024-01-06T00:58:03;97545.78;;;4.71;96.64
50226;BME280;36113;50.742;6.432;2024-01-06T01:00:28;97545.25;;;4.74;96.53
50226;BME280;36113;50.742;6.432;2024-01-06T01:02:54;97530.66;;;4.65;96.65
50226;BME280;36113;50.742;6.432;2024-01-06T01:05:19;97531.47;;;4.60;96.80
50226;BME280;36113;50.742;6.432;2024-01-06T01:07:44;97525.81;;;4.62;97.16
50226;BME280;36113;50.742;6.432;2024-01-06T01:10:10;97561.41;;;4.79;97.26
50226;BME280;36113;50.742;6.432;2024-01-06T01:12:35;97545.81;;;4.76;96.78
50226;BME280;36113;50.742;6.432;2024-01-06T01:15:01;97527.72;;;4.66;96.95
50226;BME280;36113;50.742;6.432;2024-01-06T01:17:26;97556.03;;;4.84;96.68
50226;BME280;36113;50.742;6.432;2024-01-06T01:19:52;97551.44;;;4.80;96.86
50226;BME280;36113;50.742;6.432;2024-01-06T01:22:17;97519.41;;;4.68;96.80
50226;BME280;36113;50.742;6.432;2024-01-06T01:24:42;97549.59;;;4.85;96.95
50226;BME280;36113;50.742;6.432;2024-01-06T01:27:08;97546.31;;;4.78;97.51
50226;BME280;36113;50.742;6.432;2024-01-06T01:29:34;97549.56;;;4.75;97.75
50226;BME280;36113;50.742;6.432;2024-01-06T01:31:59;97561.97;;;4.86;97.56
50226;BME280;36113;50.742;6.432;2024-01-06T01:34:24;97532.56;;;4.64;97.73
50226;BME280;36113;50.742;6.432;2024-01-06T01:36:50;97543.13;;;4.76;97.55
50226;BME280;36113;50.742;6.432;2024-01-06T01:39:15;97547.41;;;4.72;97.78
50226;BME280;36113;50.742;6.432;2024-01-06T01:41:40;97581.38;;;4.93;97.86
50226;BME280;36113;50.742;6.432;2024-01-06T01:44:06;97582.75;;;4.96;97.52
50226;BME280;36113;50.742;6.432;2024-01-06T01:46:32;97584.84;;;4.89;98.16
50226;BME280;36113;50.742;6.432;2024-01-06T01:49:00;97575.97;;;4.93;98.11
50226;BME280;36113;50.742;6.432;2024-01-06T01:51:32;97548.50;;;4.76;97.94
50226;BME280;36113;50.742;6.432;2024-01-06T01:53:59;97569.25;;;4.91;98.46
50226;BME280;36113;50.742;6.432;2024-01-06T01:56:26;97540.94;;;4.73;98.51
50226;BME280;36113;50.742;6.432;2024-01-06T01:58:52;97551.19;;;4.81;98.04
50226;BME280;36113;50.742;6.432;2024-01-06T02:01:18;97569.53;;;4.89;98.09
50226;BME280;36113;50.742;6.432;2024-01-06T02:03:43;97591.34;;;4.98;98.22
50226;BME280;36113;50.742;6.432;2024-01-06T02:06:09;97599.44;;;4.98;98.56
50226;BME280;36113;50.742;6.432;2024-01-06T02:08:35;97594.03;;;4.98;98.01
50226;BME280;36113;50.742;6.432;2024-01-06T02:11:00;97598.09;;;5.01;98.46
50226;BME280;36113;50.742;6.432;2024-01-06T02:13:35;97585.44;;;5.01;97.83
50226;BME280;36113;50.742;6.432;2024-01-06T02:16:05;97571.16;;;4.95;97.82
50226;BME280;36113;50.742;6.432;2024-01-06T02:18:31;97599.22;;;5.10;97.61
50226;BME280;36113;50.742;6.432;2024-01-06T02:20:58;97601.06;;;5.04;98.00
50226;BME280;36113;50.742;6.432;2024-01-06T02:23:24;97592.72;;;5.06;97.94
50226;BME280;36113;50.742;6.432;2024-01-06T02:25:49;97593.53;;;5.01;97.98
50226;BME280;36113;50.742;6.432;2024-01-06T02:28:15;97605.66;;;5.09;98.15
50226;BME280;36113;50.742;6.432;2024-01-06T02:30:40;97608.09;;;5.10;98.13
50226;BME280;36113;50.742;6.432;2024-01-06T02:33:05;97614.03;;;5.17;97.81
50226;BME280;36113;50.742;6.432;2024-01-06T02:35:30;97616.72;;;5.17;98.00
50226;BME280;36113;50.742;6.432;2024-01-06T02:37:56;97617.81;;;5.16;97.96
50226;BME280;36113;50.742;6.432;2024-01-06T02:40:21;97624.00;;;5.17;98.18
50226;BME280;36113;50.742;6.432;2024-01-06T02:42:46;97619.69;;;5.16;97.56
50226;BME280;36113;50.742;6.432;2024-01-06T02:45:12;97625.91;;;5.22;97.80
50226;BME280;36113;50.742;6.432;2024-01-06T02:47:37;97597.56;;;5.09;97.31
50226;BME280;36113;50.742;6.432;2024-01-06T02:50:03;97641.00;;;5.28;97.46
50226;BME280;36113;50.742;6.432;2024-01-06T02:52:28;97625.59;;;5.13;97.63
50226;BME280;36113;50.742;6.432;2024-01-06T02:54:54;97643.66;;;5.17;97.89
50226;BME280;36113;50.742;6.432;2024-01-06T02:57:19;97618.56;;;5.02;97.58
50226;BME280;36113;50.742;6.432;2024-01-06T02:59:44;97643.41;;;5.24;97.59
50226;BME280;36113;50.742;6.432;2024-01-06T03:02:10;97625.59;;;5.13;97.63
50226;BME280;36113;50.742;6.432;2024-01-06T03:04:36;97636.38;;;5.18;97.18
50226;BME280;36113;50.742;6.432;2024-01-06T03:07:01;97627.50;;;5.12;97.46
50226;BME280;36113;50.742;6.432;2024-01-06T03:09:26;97623.44;;;5.10;97.31
50226;BME280;36113;50.742;6.432;2024-01-06T03:11:52;97631.78;;;5.13;97.33
50226;BME280;36113;50.742;6.432;2024-01-06T03:14:17;97655.81;;;5.30;97.62
50226;BME280;36113;50.742;6.432;2024-01-06T03:16:42;97629.38;;;5.12;97.33
50226;BME280;36113;50.742;6.432;2024-01-06T03:19:08;97649.88;;;5.23;97.15
50226;BME280;36113;50.742;6.432;2024-01-06T03:21:33;97662.84;;;5.31;97.28
50226;BME280;36113;50.742;6.432;2024-01-06T03:23:58;97667.94;;;5.33;97.21
50226;BME280;36113;50.742;6.432;2024-01-06T03:26:23;97633.69;;;5.18;96.53
50226;BME280;36113;50.742;6.432;2024-01-06T03:28:49;97626.69;;;5.12;96.78
50226;BME280;36113;50.742;6.432;2024-01-06T03:31:15;97676.59;;;5.35;96.88
50226;BME280;36113;50.742;6.432;2024-01-06T03:33:40;97669.31;;;5.35;96.78
50226;BME280;36113;50.742;6.432;2024-01-06T03:36:06;97616.69;;;5.02;96.52
50226;BME280;36113;50.742;6.432;2024-01-06T03:38:32;97665.00;;;5.34;96.67
50226;BME280;36113;50.742;6.432;2024-01-06T03:40:57;97664.75;;;5.36;96.53
50226;BME280;36113;50.742;6.432;2024-01-06T03:43:22;97669.31;;;5.35;96.56
50226;BME280;36113;50.742;6.432;2024-01-06T03:45:48;97667.16;;;5.37;96.42
50226;BME280;36113;50.742;6.432;2024-01-06T03:48:13;97672.00;;;5.30;96.28
50226;BME280;36113;50.742;6.432;2024-01-06T03:50:38;97666.06;;;5.28;96.21
50226;BME280;36113;50.742;6.432;2024-01-06T03:53:04;97633.13;;;5.06;96.60
50226;BME280;36113;50.742;6.432;2024-01-06T03:55:30;97664.16;;;5.24;96.48
50226;BME280;36113;50.742;6.432;2024-01-06T03:57:55;97664.97;;;5.24;96.66
50226;BME280;36113;50.742;6.432;2024-01-06T04:00:20;97677.38;;;5.25;96.28
50226;BME280;36113;50.742;6.432;2024-01-06T04:02:46;97680.06;;;5.30;96.57
50226;BME280;36113;50.742;6.432;2024-01-06T04:05:11;97674.41;;;5.27;96.27
50226;BME280;36113;50.742;6.432;2024-01-06T04:07:36;97675.78;;;5.29;96.08
50226;BME280;36113;50.742;6.432;2024-01-06T04:10:02;97676.31;;;5.31;96.23
50226;BME280;36113;50.742;6.432;2024-01-06T04:12:27;97672.53;;;5.27;95.90
50226;BME280;36113;50.742;6.432;2024-01-06T04:14:52;97685.72;;;5.29;96.12
50226;BME280;36113;50.742;6.432;2024-01-06T04:17:18;97679.78;;;5.27;96.46
50226;BME280;36113;50.742;6.432;2024-01-06T04:19:43;97682.47;;;5.22;96.53
50226;BME280;36113;50.742;6.432;2024-01-06T04:22:09;97660.31;;;5.04;96.77
50226;BME280;36113;50.742;6.432;2024-01-06T04:24:34;97661.66;;;5.02;96.81
50226;BME280;36113;50.742;6.432;2024-01-06T04:27:03;97694.06;;;5.22;96.95
50226;BME280;36113;50.742;6.432;2024-01-06T04:29:29;97689.19;;;5.19;96.78
50226;BME280;36113;50.742;6.432;2024-01-06T04:31:55;97711.56;;;5.19;97.51
50226;BME280;36113;50.742;6.432;2024-01-06T04:34:20;97706.19;;;5.19;97.35
50226;BME280;36113;50.742;6.432;2024-01-06T04:36:45;97653.81;;;4.90;97.46
50226;BME280;36113;50.742;6.432;2024-01-06T04:39:11;97711.31;;;5.21;97.46
50226;BME280;36113;50.742;6.432;2024-01-06T04:41:38;97720.19;;;5.16;97.05
50226;BME280;36113;50.742;6.432;2024-01-06T04:44:04;97717.19;;;5.08;97.32
50226;BME280;36113;50.742;6.432;2024-01-06T04:46:29;97682.56;;;4.79;96.65
50226;BME280;36113;50.742;6.432;2024-01-06T04:48:55;97713.84;;;4.90;97.48
50226;BME280;36113;50.742;6.432;2024-01-06T04:51:21;97704.94;;;4.85;97.37
50226;BME280;36113;50.742;6.432;2024-01-06T04:53:46;97713.00;;;4.85;97.55
50226;BME280;36113;50.742;6.432;2024-01-06T04:56:12;97683.84;;;4.66;97.43
50226;BME280;36113;50.742;6.432;2024-01-06T04:58:38;97721.31;;;4.78;97.58
50226;BME280;36113;50.742;6.432;2024-01-06T05:01:03;97727.78;;;4.77;97.87
50226;BME280;36113;50.742;6.432;2024-01-06T05:03:29;97730.72;;;4.70;97.63
50226;BME280;36113;50.742;6.432;2024-01-06T05:05:55;97727.16;;;4.65;98.09
50226;BME280;36113;50.742;6.432;2024-01-06T05:08:20;97729.59;;;4.66;98.30
50226;BME280;36113;50.742;6.432;2024-01-06T05:10:47;97722.63;;;4.65;97.95
50226;BME280;36113;50.742;6.432;2024-01-06T05:13:12;97728.50;;;4.62;97.97
50226;BME280;36113;50.742;6.432;2024-01-06T05:15:38;97721.75;;;4.60;98.00
50226;BME280;36113;50.742;6.432;2024-01-06T05:18:03;97727.44;;;4.63;97.81
50226;BME280;36113;50.742;6.432;2024-01-06T05:20:29;97730.69;;;4.65;97.67
50226;BME280;36113;50.742;6.432;2024-01-06T05:22:54;97706.31;;;4.45;97.65
50226;BME280;36113;50.742;6.432;2024-01-06T05:25:20;97743.28;;;4.60;97.38
50226;BME280;36113;50.742;6.432;2024-01-06T05:27:45;97746.50;;;4.56;97.35
50226;BME280;36113;50.742;6.432;2024-01-06T05:30:10;97743.75;;;4.51;97.20
50226;BME280;36113;50.742;6.432;2024-01-06T05:32:37;97718.59;;;4.30;97.26
50226;BME280;36113;50.742;6.432;2024-01-06T05:35:03;97728.00;;;4.28;97.06
50226;BME280;36113;50.742;6.432;2024-01-06T05:37:28;97753.13;;;4.44;97.23
50226;BME280;36113;50.742;6.432;2024-01-06T05:39:54;97729.06;;;4.27;96.97
50226;BME280;36113;50.742;6.432;2024-01-06T05:42:20;97749.59;;;4.38;97.33
50226;BME280;36113;50.742;6.432;2024-01-06T05:44:45;97764.13;;;4.37;97.36
50226;BME280;36113;50.742;6.432;2024-01-06T05:47:11;97757.88;;;4.31;97.74
50226;BME280;36113;50.742;6.432;2024-01-06T05:49:36;97734.94;;;4.19;97.51
50226;BME280;36113;50.742;6.432;2024-01-06T05:52:01;97767.84;;;4.36;97.92
50226;BME280;36113;50.742;6.432;2024-01-06T05:54:27;97761.88;;;4.29;98.00
50226;BME280;36113;50.742;6.432;2024-01-06T05:56:52;97780.22;;;4.32;97.91
50226;BME280;36113;50.742;6.432;2024-01-06T05:59:17;97783.72;;;4.32;97.73
50226;BME280;36113;50.742;6.432;2024-01-06T06:01:43;97786.38;;;4.27;97.92
50226;BME280;36113;50.742;6.432;2024-01-06T06:04:09;97784.50;;;4.28;97.69
50226;BME280;36113;50.742;6.432;2024-01-06T06:06:35;97729.84;;;3.90;97.32
50226;BME280;36113;50.742;6.432;2024-01-06T06:09:00;97763.34;;;4.09;97.01
50226;BME280;36113;50.742;6.432;2024-01-06T06:11:25;97776.84;;;4.14;96.92
50226;BME280;36113;50.742;6.432;2024-01-06T06:13:51;97757.88;;;3.99;96.80
50226;BME280;36113;50.742;6.432;2024-01-06T06:16:16;97791.41;;;4.19;96.55
50226;BME280;36113;50.742;6.432;2024-01-06T06:18:41;97802.16;;;4.19;96.67
50226;BME280;36113;50.742;6.432;2024-01-06T06:21:07;97800.72;;;4.11;96.61
50226;BME280;36113;50.742;6.432;2024-01-06T06:23:35;97809.13;;;4.14;97.08
50226;BME280;36113;50.742;6.432;2024-01-06T06:26:07;97813.97;;;4.18;96.69
50226;BME280;36113;50.742;6.432;2024-01-06T06:28:33;97787.38;;;3.94;96.66
50226;BME280;36113;50.742;6.432;2024-01-06T06:30:59;97811.75;;;4.09;96.49
50226;BME280;36113;50.742;6.432;2024-01-06T06:33:24;97798.97;;;3.94;96.49
50226;BME280;36113;50.742;6.432;2024-01-06T06:35:50;97829.75;;;4.09;96.49
50226;BME280;36113;50.742;6.432;2024-01-06T06:38:16;97827.88;;;4.09;97.00
50226;BME280;36113;50.742;6.432;2024-01-06T06:40:41;97837.03;;;4.08;97.11
50226;BME280;36113;50.742;6.432;2024-01-06T06:43:07;97825.19;;;4.09;96.57
50226;BME280;36113;50.742;6.432;2024-01-06T06:45:33;97842.09;;;4.05;96.15
50226;BME280;36113;50.742;6.432;2024-01-06T06:47:58;97858.41;;;3.98;96.68
50226;BME280;36113;50.742;6.432;2024-01-06T06:50:24;97858.69;;;3.97;97.00
50226;BME280;36113;50.742;6.432;2024-01-06T06:52:49;97853.56;;;3.95;97.01
50226;BME280;36113;50.742;6.432;2024-01-06T06:55:14;97856.94;;;3.85;97.39
50226;BME280;36113;50.742;6.432;2024-01-06T06:57:39;97868.00;;;3.89;97.63
50226;BME280;36113;50.742;6.432;2024-01-06T07:00:05;97868.00;;;3.89;97.70
50226;BME280;36113;50.742;6.432;2024-01-06T07:02:32;97852.06;;;3.82;97.63
50226;BME280;36113;50.742;6.432;2024-01-06T07:04:58;97843.91;;;3.72;97.72
50226;BME280;36113;50.742;6.432;2024-01-06T07:07:23;97876.06;;;3.89;98.15
50226;BME280;36113;50.742;6.432;2024-01-06T07:09:48;97877.69;;;3.90;97.99
50226;BME280;36113;50.742;6.432;2024-01-06T07:12:14;97889.81;;;3.92;98.31
50226;BME280;36113;50.742;6.432;2024-01-06T07:14:39;97857.81;;;3.69;98.38
50226;BME280;36113;50.742;6.432;2024-01-06T07:17:04;97897.31;;;3.90;98.02
50226;BME280;36113;50.742;6.432;2024-01-06T07:19:31;97900.81;;;3.91;98.56
50226;BME280;36113;50.742;6.432;2024-01-06T07:21:57;97909.97;;;3.90;97.93
50226;BME280;36113;50.742;6.432;2024-01-06T07:24:22;97911.94;;;3.78;98.23
50226;BME280;36113;50.742;6.432;2024-01-06T07:26:47;97921.19;;;3.65;98.03
50226;BME280;36113;50.742;6.432;2024-01-06T07:29:13;97899.66;;;3.43;98.35
50226;BME280;36113;50.742;6.432;2024-01-06T07:31:38;97925.38;;;3.56;98.78
50226;BME280;36113;50.742;6.432;2024-01-06T07:34:03;97928.38;;;3.59;98.60
50226;BME280;36113;50.742;6.432;2024-01-06T07:36:29;97933.53;;;3.44;98.42
50226;BME280;36113;50.742;6.432;2024-01-06T07:38:54;97937.22;;;3.38;98.96
50226;BME280;36113;50.742;6.432;2024-01-06T07:41:21;97944.69;;;3.36;99.40
50226;BME280;36113;50.742;6.432;2024-01-06T07:43:46;97941.78;;;3.20;99.41
50226;BME280;36113;50.742;6.432;2024-01-06T07:46:12;97943.88;;;3.18;99.43
50226;BME280;36113;50.742;6.432;2024-01-06T07:48:37;97946.00;;;3.16;99.37
50226;BME280;36113;50.742;6.432;2024-01-06T07:51:03;97943.41;;;3.21;99.55
50226;BME280;36113;50.742;6.432;2024-01-06T07:53:28;97954.06;;;3.16;99.10
50226;BME280;36113;50.742;6.432;2024-01-06T07:55:54;97955.13;;;3.15;99.31
50226;BME280;36113;50.742;6.432;2024-01-06T07:58:19;97968.06;;;3.18;98.88
50226;BME280;36113;50.742;6.432;2024-01-06T08:00:45;97937.13;;;2.99;98.89
50226;BME280;36113;50.742;6.432;2024-01-06T08:03:10;97972.97;;;3.21;98.91
50226;BME280;36113;50.742;6.432;2024-01-06T08:05:36;97981.50;;;3.18;98.91
50226;BME280;36113;50.742;6.432;2024-01-06T08:08:03;97982.06;;;3.20;98.95
50226;BME280;36113;50.742;6.432;2024-01-06T08:10:29;97982.56;;;3.17;99.04
50226;BME280;36113;50.742;6.432;2024-01-06T08:12:54;97978.97;;;3.11;99.13
50226;BME280;36113;50.742;6.432;2024-01-06T08:15:20;97992.97;;;3.14;99.02
50226;BME280;36113;50.742;6.432;2024-01-06T08:17:45;97999.63;;;3.11;99.09
50226;BME280;36113;50.742;6.432;2024-01-06T08:20:12;98009.41;;;3.17;99.31
50226;BME280;36113;50.742;6.432;2024-01-06T08:22:38;98014.88;;;3.22;98.79
50226;BME280;36113;50.742;6.432;2024-01-06T08:25:03;98002.09;;;3.13;99.14
50226;BME280;36113;50.742;6.432;2024-01-06T08:27:31;98015.09;;;3.21;98.86
50226;BME280;36113;50.742;6.432;2024-01-06T08:29:56;98007.94;;;3.09;98.41
50226;BME280;36113;50.742;6.432;2024-01-06T08:32:21;98025.03;;;3.20;98.69
50226;BME280;36113;50.742;6.432;2024-01-06T08:34:47;98037.31;;;3.16;98.54
50226;BME280;36113;50.742;6.432;2024-01-06T08:37:12;98035.94;;;3.14;98.78
50226;BME280;36113;50.742;6.432;2024-01-06T08:39:38;98021.13;;;3.11;98.97
50226;BME280;36113;50.742;6.432;2024-01-06T08:42:03;98000.44;;;2.95;98.72
50226;BME280;36113;50.742;6.432;2024-01-06T08:44:32;98043.25;;;3.18;98.65
50226;BME280;36113;50.742;6.432;2024-01-06T08:46:57;98047.59;;;3.19;98.03
50226;BME280;36113;50.742;6.432;2024-01-06T08:49:22;98031.53;;;3.07;97.74
50226;BME280;36113;50.742;6.432;2024-01-06T08:51:48;98057.09;;;3.10;97.98
50226;BME280;36113;50.742;6.432;2024-01-06T08:54:13;98030.13;;;2.88;97.70
50226;BME280;36113;50.742;6.432;2024-01-06T08:56:38;98062.63;;;3.03;97.80
50226;BME280;36113;50.742;6.432;2024-01-06T08:59:04;98071.06;;;3.12;97.30
50226;BME280;36113;50.742;6.432;2024-01-06T09:01:30;98075.31;;;3.08;97.26
50226;BME280;36113;50.742;6.432;2024-01-06T09:03:56;98069.19;;;2.96;96.95
50226;BME280;36113;50.742;6.432;2024-01-06T09:06:22;98070.94;;;2.90;97.47
50226;BME280;36113;50.742;6.432;2024-01-06T09:08:47;98062.44;;;2.93;97.00
50226;BME280;36113;50.742;6.432;2024-01-06T09:11:12;98048.50;;;2.79;97.01
50226;BME280;36113;50.742;6.432;2024-01-06T09:13:39;98074.69;;;2.89;97.20
50226;BME280;36113;50.742;6.432;2024-01-06T09:16:04;98078.75;;;2.92;97.10
50226;BME280;36113;50.742;6.432;2024-01-06T09:18:29;98077.53;;;2.82;97.40
50226;BME280;36113;50.742;6.432;2024-01-06T09:20:55;98090.94;;;2.82;97.91
50226;BME280;36113;50.742;6.432;2024-01-06T09:23:21;98067.06;;;2.69;97.29
50226;BME280;36113;50.742;6.432;2024-01-06T09:25:46;98100.81;;;2.94;97.28
50226;BME280;36113;50.742;6.432;2024-01-06T09:28:15;98105.47;;;2.98;96.68
50226;BME280;36113;50.742;6.432;2024-01-06T09:30:40;98108.88;;;2.94;97.25
50226;BME280;36113;50.742;6.432;2024-01-06T09:33:05;98106.75;;;2.96;97.50
50226;BME280;36113;50.742;6.432;2024-01-06T09:35:33;98111.22;;;2.90;97.06
50226;BME280;36113;50.742;6.432;2024-01-06T09:37:58;98115.63;;;2.96;96.94
50226;BME280;36113;50.742;6.432;2024-01-06T09:40:24;98123.44;;;2.98;97.15
50226;BME280;36113;50.742;6.432;2024-01-06T09:42:50;98123.44;;;2.98;97.13
50226;BME280;36113;50.742;6.432;2024-01-06T09:45:16;98125.06;;;2.99;96.89
50226;BME280;36113;50.742;6.432;2024-01-06T09:47:41;98124.25;;;2.98;96.48
50226;BME280;36113;50.742;6.432;2024-01-06T09:50:08;98146.25;;;3.12;96.23
50226;BME280;36113;50.742;6.432;2024-01-06T09:52:39;98130.22;;;3.00;95.81
50226;BME280;36113;50.742;6.432;2024-01-06T09:55:10;98148.41;;;3.10;95.46
50226;BME280;36113;50.742;6.432;2024-01-06T09:57:36;98152.63;;;3.06;95.45
50226;BME280;36113;50.742;6.432;2024-01-06T10:00:02;98141.53;;;3.02;95.38
50226;BME280;36113;50.742;6.432;2024-01-06T10:02:27;98119.53;;;2.88;94.95
50226;BME280;36113;50.742;6.432;2024-01-06T10:04:52;98101.16;;;2.68;94.98
50226;BME280;36113;50.742;6.432;2024-01-06T10:07:18;98152.03;;;3.04;94.82
50226;BME280;36113;50.742;6.432;2024-01-06T10:09:43;98133.41;;;2.85;94.38
50226;BME280;36113;50.742;6.432;2024-01-06T10:12:09;98129.59;;;2.81;94.25
50226;BME280;36113;50.742;6.432;2024-01-06T10:14:35;98154.72;;;3.04;94.19
50226;BME280;36113;50.742;6.432;2024-01-06T10:17:01;98143.78;;;2.94;93.37
50226;BME280;36113;50.742;6.432;2024-01-06T10:19:26;98148.91;;;2.95;92.99
50226;BME280;36113;50.742;6.432;2024-01-06T10:21:52;98126.63;;;2.83;93.62
50226;BME280;36113;50.742;6.432;2024-01-06T10:24:18;98107.53;;;2.67;93.81
50226;BME280;36113;50.742;6.432;2024-01-06T10:26:45;98151.97;;;2.87;93.99
50226;BME280;36113;50.742;6.432;2024-01-06T10:29:10;98144.41;;;2.84;93.98
50226;BME280;36113;50.742;6.432;2024-01-06T10:31:36;98150.13;;;2.76;94.44
50226;BME280;36113;50.742;6.432;2024-01-06T10:34:02;98134.16;;;2.69;94.48
50226;BME280;36113;50.742;6.432;2024-01-06T10:36:28;98154.56;;;2.70;95.05
50226;BME280;36113;50.742;6.432;2024-01-06T10:38:54;98145.97;;;2.68;94.95
50226;BME280;36113;50.742;6.432;2024-01-06T10:41:20;98123.31;;;2.52;94.99
50226;BME280;36113;50.742;6.432;2024-01-06T10:43:46;98144.66;;;2.59;95.37
50226;BME280;36113;50.742;6.432;2024-01-06T10:46:14;98159.13;;;2.69;95.56
50226;BME280;36113;50.742;6.432;2024-01-06T10:48:42;98169.25;;;2.67;95.84
50226;BME280;36113;50.742;6.432;2024-01-06T10:51:10;98169.03;;;2.69;95.76
50226;BME280;36113;50.742;6.432;2024-01-06T10:53:36;98158.31;;;2.69;96.09
50226;BME280;36113;50.742;6.432;2024-01-06T10:56:04;98158.78;;;2.66;96.10
50226;BME280;36113;50.742;6.432;2024-01-06T10:58:32;98161.34;;;2.73;96.23
50226;BME280;36113;50.742;6.432;2024-01-06T11:00:59;98169.50;;;2.78;95.12
50226;BME280;36113;50.742;6.432;2024-01-06T11:03:26;98141.28;;;2.63;95.31
50226;BME280;36113;50.742;6.432;2024-01-06T11:05:54;98165.28;;;2.82;94.89
50226;BME280;36113;50.742;6.432;2024-01-06T11:08:20;98155.72;;;2.74;94.40
50226;BME280;36113;50.742;6.432;2024-01-06T11:10:47;98126.81;;;2.64;93.75
50226;BME280;36113;50.742;6.432;2024-01-06T11:13:14;98159.53;;;2.90;93.79
50226;BME280;36113;50.742;6.432;2024-01-06T11:15:46;98163.63;;;2.81;92.99
50226;BME280;36113;50.742;6.432;2024-01-06T11:18:35;98166.69;;;2.84;93.81
50226;BME280;36113;50.742;6.432;2024-01-06T11:23:37;98154.19;;;2.78;93.38
50226;BME280;36113;50.742;6.432;2024-01-06T11:26:03;98151.75;;;2.77;93.01
50226;BME280;36113;50.742;6.432;2024-01-06T11:28:28;98167.25;;;2.86;93.66
50226;BME280;36113;50.742;6.432;2024-01-06T11:31:09;98129.41;;;2.59;93.76
50226;BME280;36113;50.742;6.432;2024-01-06T11:33:44;98140.34;;;2.69;94.14
50226;BME280;36113;50.742;6.432;2024-01-06T11:36:10;98160.16;;;2.80;93.69
50226;BME280;36113;50.742;6.432;2024-01-06T11:38:38;98178.56;;;2.88;93.51
50226;BME280;36113;50.742;6.432;2024-01-06T11:41:10;98146.41;;;2.65;93.83
50226;BME280;36113;50.742;6.432;2024-01-06T11:43:38;98171.69;;;2.81;93.98
50226;BME280;36113;50.742;6.432;2024-01-06T11:46:05;98171.81;;;2.74;94.10
50226;BME280;36113;50.742;6.432;2024-01-06T11:48:32;98176.16;;;2.75;93.64
50226;BME280;36113;50.742;6.432;2024-01-06T11:50:58;98141.16;;;2.58;93.96
50226;BME280;36113;50.742;6.432;2024-01-06T11:53:26;98170.53;;;2.77;93.77
50226;BME280;36113;50.742;6.432;2024-01-06T11:55:52;98142.91;;;2.64;93.96
50226;BME280;36113;50.742;6.432;2024-01-06T11:58:17;98167.38;;;2.80;93.47
50226;BME280;36113;50.742;6.432;2024-01-06T12:00:42;98160.16;;;2.80;93.24
50226;BME280;36113;50.742;6.432;2024-01-06T12:03:09;98126.38;;;2.56;93.00
50226;BME280;36113;50.742;6.432;2024-01-06T12:05:35;98169.94;;;2.86;92.43
50226;BME280;36113;50.742;6.432;2024-01-06T12:08:02;98142.66;;;2.78;92.71
50226;BME280;36113;50.742;6.432;2024-01-06T12:10:31;98182.41;;;2.93;92.16
50226;BME280;36113;50.742;6.432;2024-01-06T12:13:05;98176.94;;;2.87;92.69
50226;BME280;36113;50.742;6.432;2024-01-06T12:15:33;98155.25;;;2.77;92.47
50226;BME280;36113;50.742;6.432;2024-01-06T12:18:02;98152.22;;;2.74;92.63
50226;BME280;36113;50.742;6.432;2024-01-06T12:20:28;98157.81;;;2.84;91.83
50226;BME280;36113;50.742;6.432;2024-01-06T12:22:54;98141.00;;;2.77;91.93
50226;BME280;36113;50.742;6.432;2024-01-06T12:25:21;98162.13;;;2.85;92.15
50226;BME280;36113;50.742;6.432;2024-01-06T12:27:48;98172.13;;;2.89;92.03
50226;BME280;36113;50.742;6.432;2024-01-06T12:30:15;98134.88;;;2.64;92.57
50226;BME280;36113;50.742;6.432;2024-01-06T12:32:45;98171.69;;;2.81;92.04
50226;BME280;36113;50.742;6.432;2024-01-06T12:35:11;98139.28;;;2.59;92.22
50226;BME280;36113;50.742;6.432;2024-01-06T12:37:37;98167.53;;;2.73;92.20
50226;BME280;36113;50.742;6.432;2024-01-06T12:40:03;98173.13;;;2.72;92.34
50226;BME280;36113;50.742;6.432;2024-01-06T12:42:28;98174.28;;;2.76;92.83
50226;BME280;36113;50.742;6.432;2024-01-06T12:44:53;98169.00;;;2.81;92.85
50226;BME280;36113;50.742;6.432;2024-01-06T12:47:19;98169.84;;;2.81;92.30
50226;BME280;36113;50.742;6.432;2024-01-06T12:49:44;98172.19;;;2.78;92.07
50226;BME280;36113;50.742;6.432;2024-01-06T12:52:11;98178.47;;;2.72;92.40
50226;BME280;36113;50.742;6.432;2024-01-06T12:54:36;98182.09;;;2.77;92.69
50226;BME280;36113;50.742;6.432;2024-01-06T12:57:02;98186.88;;;2.75;92.95
50226;BME280;36113;50.742;6.432;2024-01-06T12:59:27;98185.72;;;2.71;92.90
50226;BME280;36113;50.742;6.432;2024-01-06T13:01:52;98173.81;;;2.67;93.48
50226;BME280;36113;50.742;6.432;2024-01-06T13:04:18;98155.78;;;2.51;93.55
50226;BME280;36113;50.742;6.432;2024-01-06T13:06:43;98159.28;;;2.51;94.03